Gillette, WY

2:04 PM MDT on August 30, 2014 (GMT -0600)
Gillette-Campbell County | Change Station
CLOSE
Current Station
Airport
Location: Gillette,
Elevation: 4364 ft
Nearby Weather Stations

Elev 4364 ft 44.34 °N, 105.54 °W | Updated 11 minutes ago

Clear
Clear
83 °F
Feels Like 83 °F
N
16
Wind Variable Wind from North

Today
High -- | Low -- °F
--% Chance of Precip.
Yesterday
High -- | Low -- °F
Precip. -- in
6:22 AM 7:42 PM
Waxing Crescent, 24% visible
Pressure 29.63 in
Visibility 10.0 miles
Clouds Clear
Dew Point 51 °F
Humidity 33%
Rainfall 0.00 in
Snow Depth Not available.
UV 9 out of 12
Pollen 8.50 out of 12
Air Quality Not available.
Flu Activity Not available.
METAR KGCC 301953Z AUTO 35014KT 10SM CLR 28/11 A2977 RMK AO2 WSHFT 1915 LTG DSNT NE SLP032 T02830106

More Conditions Fewer Conditions

Pressure 29.63 in
Visibility 10.0 miles
Clouds Clear
Dew Point 51 °F
Humidity 33%
Rainfall 0.00 in
Snow Depth Not available.
UV 9 out of 12
Pollen 8.50 out of 12
Air Quality Not available.
Flu Activity Not available.
METAR KGCC 301953Z AUTO 35014KT 10SM CLR 28/11 A2977 RMK AO2 WSHFT 1915 LTG DSNT NE SLP032 T02830106

More Conditions Fewer Conditions

10-Day Weather Forecast

Almanac

Astronomy

Aug. 30, 2014 Rise Set
Actual Time 6:22 AM MDT 7:42 PM MDT
Civil Twilight 5:52 AM MDT 8:12 PM MDT
Nautical Twilight 5:16 AM MDT 8:49 PM MDT
Astronomical Twilight 4:37 AM MDT 9:27 PM MDT
Moon 11:26 AM MDT 10:05 PM MDT
Length of Visible Light 14h 20m
Length of Day
13h 19m
Tomorrow will be 2m 58s shorter.
Waxing Crescent, 24% of the Moon is Illuminated
Today
Waxing Crescent
Sep 2
First Quarter
Sep 8
Full
Sep 15
Last Quarter
Sep 24
New

Today's Extremes

State Highs State Lows

Community

WunderPhotos

Upload Photos

1,748,620 photos uploaded!

WunderBlogs® & News

Nearby

Snow Depth

Station Depth Elevation
Cole Canyon 0 in 5910 ft
Burgess Junction 0 in 7880 ft
Middle Powder 0 in 7760 ft
Marquette 0 in 8760 ft
Kirwin 0 in 9550 ft

Earthquake Activity

City Distance Mag. Time & Date
No recent earthquake activity has been reported nearby.
Minimum magnitude displayed is 2.5.

Coastal Water Temperatures

Place Temperature
No Stations Reporting

Nearby Weather Stations